createdAt,value
2019-03-18T00:00:23.080Z,11.35
2019-03-18T00:02:52.614Z,11.33
2019-03-18T00:05:22.095Z,11.27
2019-03-18T00:07:51.643Z,11.20
2019-03-18T00:10:21.163Z,11.26
2019-03-18T00:12:52.160Z,11.30
2019-03-18T00:15:21.866Z,11.33
2019-03-18T00:17:51.370Z,11.28
2019-03-18T00:20:20.900Z,11.27
2019-03-18T00:22:50.377Z,11.22
2019-03-18T00:25:19.929Z,11.18
2019-03-18T00:27:49.435Z,11.17
2019-03-18T00:30:18.967Z,10.99
2019-03-18T00:32:48.474Z,10.88
2019-03-18T00:35:18.086Z,10.83
2019-03-18T00:37:47.713Z,10.80
2019-03-18T00:40:17.305Z,10.78
2019-03-18T00:42:46.908Z,10.74
2019-03-18T00:45:16.721Z,10.58
2019-03-18T00:47:46.242Z,9.89
2019-03-18T00:50:15.851Z,9.74
2019-03-18T00:52:45.363Z,9.85
2019-03-18T00:55:14.941Z,9.91
2019-03-18T00:57:44.394Z,9.97
2019-03-18T01:00:13.983Z,10.00
2019-03-18T01:02:43.509Z,10.04
2019-03-18T01:05:13.429Z,10.08
2019-03-18T01:07:42.999Z,10.09
2019-03-18T01:10:12.569Z,10.13
2019-03-18T01:12:42.071Z,10.21
2019-03-18T01:15:11.613Z,10.21
2019-03-18T01:17:41.199Z,10.21
2019-03-18T01:20:11.536Z,10.15
2019-03-18T01:22:41.046Z,10.03
2019-03-18T01:25:11.137Z,9.96
2019-03-18T01:27:40.968Z,9.96
2019-03-18T01:30:10.516Z,9.90
2019-03-18T01:32:40.038Z,9.58
2019-03-18T01:35:10.045Z,9.44
2019-03-18T01:37:39.562Z,9.40
2019-03-18T01:40:09.485Z,9.46
2019-03-18T01:42:38.975Z,9.59
2019-03-18T01:45:08.797Z,9.65
2019-03-18T01:47:38.286Z,9.69
2019-03-18T01:50:08.525Z,9.72
2019-03-18T01:52:38.051Z,9.77
2019-03-18T01:55:07.626Z,9.78
2019-03-18T01:57:37.137Z,9.80
2019-03-18T02:00:06.834Z,9.86
2019-03-18T02:02:36.366Z,9.96
2019-03-18T02:05:06.158Z,10.03
2019-03-18T02:07:35.656Z,10.01
2019-03-18T02:10:05.289Z,9.94
2019-03-18T02:12:34.826Z,9.93
2019-03-18T02:15:04.432Z,9.97
2019-03-18T02:17:33.965Z,9.93
2019-03-18T02:20:03.471Z,9.87
2019-03-18T02:22:32.989Z,9.85
2019-03-18T02:25:02.456Z,9.74
2019-03-18T02:27:31.977Z,9.60
2019-03-18T02:30:01.485Z,9.54
2019-03-18T02:32:30.966Z,9.48
2019-03-18T02:35:00.520Z,9.43
2019-03-18T02:37:30.022Z,9.38
2019-03-18T02:39:59.501Z,9.32
2019-03-18T02:42:29.001Z,9.31
2019-03-18T02:44:58.475Z,9.24
2019-03-18T02:47:27.946Z,9.23
2019-03-18T02:49:57.427Z,9.26
2019-03-18T02:52:26.994Z,9.24
2019-03-18T02:54:56.474Z,9.18
2019-03-18T02:57:25.995Z,9.22
2019-03-18T02:59:55.528Z,9.18
2019-03-18T03:02:25.012Z,9.07
2019-03-18T03:04:54.562Z,9.11
2019-03-18T03:07:24.066Z,9.07
2019-03-18T03:09:53.538Z,8.98
2019-03-18T03:12:23.033Z,9.04
2019-03-18T03:14:52.555Z,9.00
2019-03-18T03:17:22.329Z,8.87
2019-03-18T03:19:51.952Z,8.81
2019-03-18T03:22:21.415Z,8.68
2019-03-18T03:24:50.977Z,8.67
2019-03-18T03:27:20.491Z,8.62
2019-03-18T03:29:50.032Z,8.58
2019-03-18T03:32:19.510Z,8.59
2019-03-18T03:34:49.001Z,8.53
2019-03-18T03:37:18.471Z,8.46
2019-03-18T03:39:47.946Z,8.52
2019-03-18T03:42:17.735Z,8.45
2019-03-18T03:44:47.320Z,8.27
2019-03-18T03:47:16.755Z,8.36
2019-03-18T03:49:46.220Z,8.47
2019-03-18T03:52:15.725Z,8.46
2019-03-18T03:54:45.242Z,8.45
2019-03-18T03:57:14.963Z,8.39
2019-03-18T03:59:44.481Z,8.37
2019-03-18T04:02:13.938Z,8.38
2019-03-18T04:04:43.461Z,8.43
2019-03-18T04:07:12.971Z,8.40
2019-03-18T04:09:42.451Z,8.38
2019-03-18T04:12:11.951Z,8.38
2019-03-18T04:14:41.459Z,8.32
2019-03-18T04:17:10.972Z,8.34
2019-03-18T04:19:40.448Z,8.44
2019-03-18T04:22:09.943Z,8.53
2019-03-18T04:24:39.418Z,8.61
2019-03-18T04:27:08.920Z,8.62
2019-03-18T04:29:38.490Z,8.66
2019-03-18T04:32:07.955Z,8.64
2019-03-18T04:34:37.464Z,8.52
2019-03-18T04:37:07.004Z,8.37
2019-03-18T04:39:36.482Z,8.27
2019-03-18T04:42:06.031Z,8.33
2019-03-18T04:44:35.535Z,8.35
2019-03-18T04:47:14.187Z,8.28
2019-03-18T04:49:36.176Z,8.26
2019-03-18T04:52:05.721Z,8.35
2019-03-18T04:54:35.193Z,8.45
2019-03-18T04:57:04.725Z,8.54
2019-03-18T04:59:34.229Z,8.61
2019-03-18T05:02:03.755Z,8.54
2019-03-18T05:04:33.276Z,8.58
2019-03-18T05:07:02.761Z,8.51
2019-03-18T05:09:32.387Z,8.69
2019-03-18T05:12:01.903Z,8.77
2019-03-18T05:14:31.415Z,8.84
2019-03-18T05:17:00.963Z,8.81
2019-03-18T05:19:30.482Z,8.76
2019-03-18T05:22:00.007Z,8.70
2019-03-18T05:24:30.039Z,8.52
2019-03-18T05:26:59.573Z,8.54
2019-03-18T05:29:29.102Z,8.56
2019-03-18T05:32:05.085Z,8.59
2019-03-18T05:34:34.479Z,8.55
2019-03-18T05:37:04.034Z,8.70
2019-03-18T05:39:33.541Z,8.80
2019-03-18T05:42:03.531Z,8.82
2019-03-18T05:44:33.045Z,8.83
2019-03-18T05:47:02.562Z,8.89
2019-03-18T05:49:32.071Z,8.92
2019-03-18T05:52:01.642Z,8.99
2019-03-18T05:54:31.152Z,9.08
2019-03-18T05:57:00.671Z,9.15
2019-03-18T05:59:30.192Z,9.18
2019-03-18T06:01:59.676Z,9.31
2019-03-18T06:04:29.168Z,9.34
2019-03-18T06:06:58.667Z,9.40
2019-03-18T06:09:28.614Z,9.48
2019-03-18T06:11:58.097Z,9.58
2019-03-18T06:14:27.601Z,9.67
2019-03-18T06:16:57.168Z,9.73
2019-03-18T06:19:26.703Z,9.84
2019-03-18T06:21:56.303Z,9.97
2019-03-18T06:24:26.899Z,10.02
2019-03-18T06:26:56.401Z,10.09
2019-03-18T06:29:27.548Z,10.24
2019-03-18T06:31:57.269Z,10.30
2019-03-18T06:34:26.758Z,10.42
2019-03-18T06:36:56.321Z,10.52
2019-03-18T06:39:25.968Z,10.59
2019-03-18T06:41:55.501Z,10.71
2019-03-18T06:44:25.029Z,10.83
2019-03-18T06:46:54.587Z,10.92
2019-03-18T06:49:24.095Z,11.01
2019-03-18T06:51:53.587Z,11.11
2019-03-18T06:54:23.138Z,11.22
2019-03-18T06:56:52.700Z,11.23
2019-03-18T06:59:22.183Z,11.36
2019-03-18T07:01:51.705Z,11.47
2019-03-18T07:04:21.210Z,11.57
2019-03-18T07:06:50.734Z,11.65
2019-03-18T07:09:20.258Z,11.71
2019-03-18T07:11:49.764Z,11.79
2019-03-18T07:14:19.308Z,11.89
2019-03-18T07:16:48.927Z,11.99
2019-03-18T07:19:18.459Z,12.10
2019-03-18T07:21:50.955Z,12.20
2019-03-18T07:24:20.504Z,12.29
2019-03-18T07:26:49.997Z,12.36
2019-03-18T07:29:19.520Z,12.44
2019-03-18T07:31:49.048Z,12.50
2019-03-18T07:34:18.555Z,12.58
2019-03-18T07:36:48.329Z,12.64
2019-03-18T07:39:18.263Z,12.73
2019-03-18T07:41:47.753Z,12.83
2019-03-18T07:44:17.324Z,12.89
2019-03-18T07:46:46.792Z,13.01
2019-03-18T07:49:16.297Z,13.08
2019-03-18T07:51:45.776Z,13.21
2019-03-18T07:54:15.420Z,13.34
2019-03-18T07:56:44.957Z,13.42
2019-03-18T07:59:14.442Z,13.53
2019-03-18T08:01:44.014Z,13.60
2019-03-18T08:04:13.629Z,13.69
2019-03-18T08:06:43.267Z,13.82
2019-03-18T08:09:12.823Z,13.88
2019-03-18T08:11:42.412Z,13.94
2019-03-18T08:14:11.918Z,14.03
2019-03-18T08:16:41.577Z,14.07
2019-03-18T08:19:11.099Z,14.14
2019-03-18T08:21:46.703Z,14.19
2019-03-18T08:24:16.266Z,14.17
2019-03-18T08:26:46.338Z,14.28
2019-03-18T08:29:15.837Z,14.35
2019-03-18T08:31:55.305Z,14.44
2019-03-18T08:34:33.016Z,14.51
2019-03-18T08:37:04.132Z,14.51
2019-03-18T08:39:33.705Z,14.59
2019-03-18T08:42:03.390Z,14.67
2019-03-18T08:45:20.270Z,14.77
2019-03-18T08:47:49.782Z,14.88
2019-03-18T08:50:19.371Z,14.95
2019-03-18T08:52:48.998Z,15.04
2019-03-18T08:55:18.518Z,15.09
2019-03-18T08:57:48.076Z,15.18
2019-03-18T09:00:17.565Z,15.25
2019-03-18T09:02:47.108Z,15.27
2019-03-18T09:05:16.610Z,15.29
2019-03-18T09:07:46.100Z,15.31
2019-03-18T09:10:15.750Z,15.38
2019-03-18T09:12:45.270Z,15.53
2019-03-18T09:15:15.095Z,15.63
2019-03-18T09:17:44.659Z,15.72
2019-03-18T09:20:14.256Z,15.77
2019-03-18T09:22:43.754Z,15.85
2019-03-18T09:25:13.425Z,15.90
2019-03-18T09:27:42.976Z,15.96
2019-03-18T09:30:13.119Z,16.02
2019-03-18T09:32:42.590Z,16.12
2019-03-18T09:35:12.560Z,16.19
2019-03-18T09:37:42.145Z,16.26
2019-03-18T09:40:11.850Z,16.37
2019-03-18T09:42:41.380Z,16.56
2019-03-18T09:45:10.913Z,16.56
2019-03-18T09:47:40.412Z,16.61
2019-03-18T09:50:09.919Z,16.72
2019-03-18T09:52:39.447Z,16.84
2019-03-18T09:55:09.086Z,16.92
2019-03-18T09:57:38.606Z,16.97
2019-03-18T10:00:08.174Z,17.03
2019-03-18T10:02:37.702Z,17.12
2019-03-18T10:05:07.940Z,17.24
2019-03-18T10:07:37.490Z,17.29
2019-03-18T10:10:08.383Z,17.32
2019-03-18T10:12:37.935Z,17.44
2019-03-18T10:15:09.051Z,17.50
2019-03-18T10:17:38.583Z,17.60
2019-03-18T10:20:08.436Z,17.65
2019-03-18T10:22:38.021Z,17.72
2019-03-18T10:25:07.616Z,17.83
2019-03-18T10:27:37.813Z,17.90
2019-03-18T10:30:07.622Z,17.95
2019-03-18T10:32:37.147Z,18.03
2019-03-18T10:35:07.224Z,18.13
2019-03-18T10:37:36.716Z,18.28
2019-03-18T10:40:07.227Z,18.33
2019-03-18T10:42:36.773Z,18.40
2019-03-18T10:45:07.500Z,18.45
2019-03-18T10:47:37.166Z,18.52
2019-03-18T10:50:07.665Z,18.59
2019-03-18T10:52:37.232Z,18.67
2019-03-18T10:55:07.566Z,18.72
2019-03-18T10:57:37.111Z,18.84
2019-03-18T11:00:07.388Z,18.96
2019-03-18T11:02:36.999Z,19.01
2019-03-18T11:05:08.174Z,19.04
2019-03-18T11:07:37.907Z,19.15
2019-03-18T11:10:08.330Z,19.13
2019-03-18T11:12:37.856Z,19.21
2019-03-18T11:15:08.904Z,19.26
2019-03-18T11:17:38.578Z,19.26
2019-03-18T11:20:09.741Z,19.29
2019-03-18T11:22:39.255Z,19.39
2019-03-18T11:25:09.054Z,19.44
2019-03-18T11:27:38.570Z,19.55
2019-03-18T11:30:09.052Z,19.58
2019-03-18T11:32:38.870Z,19.70
2019-03-18T11:35:08.513Z,19.82
2019-03-18T11:37:38.047Z,19.76
2019-03-18T11:40:08.506Z,19.82
2019-03-18T11:42:38.057Z,19.89
2019-03-18T11:45:08.437Z,19.98
2019-03-18T11:47:37.932Z,20.01
2019-03-18T11:50:11.245Z,20.02
2019-03-18T11:52:38.996Z,20.08
2019-03-18T11:55:10.481Z,20.16
2019-03-18T11:57:40.028Z,20.27
2019-03-18T12:00:11.626Z,20.39
2019-03-18T12:02:41.283Z,20.47
2019-03-18T12:05:12.929Z,20.58
2019-03-18T12:07:42.445Z,20.58
2019-03-18T12:10:14.040Z,20.67
2019-03-18T12:12:43.624Z,20.74
2019-03-18T12:15:13.910Z,20.72
2019-03-18T12:17:43.484Z,20.78
2019-03-18T12:20:23.572Z,20.91
2019-03-18T12:22:44.670Z,21.00
2019-03-18T12:25:14.345Z,21.06
2019-03-18T12:27:43.826Z,21.08
2019-03-18T12:30:17.888Z,21.07
2019-03-18T12:32:47.513Z,21.15
2019-03-18T12:35:17.038Z,21.29
2019-03-18T12:37:46.661Z,21.32
2019-03-18T12:40:16.372Z,21.32
2019-03-18T12:42:45.843Z,21.34
2019-03-18T12:45:15.334Z,21.39
2019-03-18T12:47:44.886Z,21.44
2019-03-18T12:50:15.831Z,21.49
2019-03-18T12:52:45.334Z,21.53
2019-03-18T12:55:15.236Z,21.46
2019-03-18T12:57:44.740Z,21.50
2019-03-18T13:00:19.718Z,21.54
2019-03-18T13:02:49.278Z,21.61
2019-03-18T13:05:19.080Z,21.66
2019-03-18T13:07:48.820Z,21.75
2019-03-18T13:10:21.169Z,21.77
2019-03-18T13:12:49.753Z,21.77
2019-03-18T13:15:19.403Z,21.75
2019-03-18T13:17:48.994Z,21.77
2019-03-18T13:20:18.640Z,21.79
2019-03-18T13:22:48.140Z,21.77
2019-03-18T13:25:17.746Z,21.88
2019-03-18T13:27:47.343Z,21.95
2019-03-18T13:30:17.196Z,22.05
2019-03-18T13:32:46.744Z,22.19
2019-03-18T13:35:16.353Z,22.17
2019-03-18T13:37:45.925Z,22.14
2019-03-18T13:40:15.456Z,22.24
2019-03-18T13:42:45.085Z,22.34
2019-03-18T13:45:15.323Z,22.40
2019-03-18T13:47:44.854Z,22.59
2019-03-18T13:50:15.421Z,22.47
2019-03-18T13:52:45.058Z,22.41
2019-03-18T13:55:14.577Z,22.48
2019-03-18T13:57:44.084Z,22.56
2019-03-18T14:00:14.436Z,22.56
2019-03-18T14:02:44.066Z,22.57
2019-03-18T14:05:13.665Z,22.57
2019-03-18T14:07:43.213Z,22.58
2019-03-18T14:10:13.780Z,22.60
2019-03-18T14:12:43.269Z,22.62
2019-03-18T14:15:14.745Z,22.61
2019-03-18T14:17:44.248Z,22.54
2019-03-18T14:20:14.875Z,22.56
2019-03-18T14:22:44.472Z,22.54
2019-03-18T14:25:14.131Z,22.57
2019-03-18T14:27:43.603Z,22.52
2019-03-18T14:30:14.952Z,22.44
2019-03-18T14:32:44.440Z,22.39
2019-03-18T14:35:14.505Z,22.35
2019-03-18T14:37:44.040Z,22.36
2019-03-18T14:40:14.973Z,22.44
2019-03-18T14:42:44.448Z,22.42
2019-03-18T14:45:15.970Z,22.41
2019-03-18T14:47:45.477Z,22.35
2019-03-18T14:50:15.515Z,22.42
2019-03-18T14:52:45.073Z,22.42
2019-03-18T14:55:14.800Z,22.43
2019-03-18T14:57:44.628Z,22.33
2019-03-18T15:00:16.879Z,22.36
2019-03-18T15:02:46.375Z,22.41
2019-03-18T15:05:15.987Z,22.34
2019-03-18T15:07:45.494Z,22.29
2019-03-18T15:10:15.272Z,22.30
2019-03-18T15:12:44.784Z,22.26
2019-03-18T15:15:15.587Z,22.22
2019-03-18T15:17:45.090Z,22.17
2019-03-18T15:20:14.726Z,22.13
2019-03-18T15:22:44.246Z,22.10
2019-03-18T15:25:16.145Z,22.08
2019-03-18T15:27:45.616Z,22.17
2019-03-18T15:30:18.294Z,22.13
2019-03-18T15:32:47.782Z,22.08
2019-03-18T15:35:17.277Z,21.96
2019-03-18T15:37:46.775Z,21.87
2019-03-18T15:40:17.205Z,21.79
2019-03-18T15:42:46.690Z,21.74
2019-03-18T15:45:16.830Z,21.73
2019-03-18T15:47:46.323Z,21.62
2019-03-18T15:50:16.949Z,21.58
2019-03-18T15:52:46.430Z,21.51
2019-03-18T15:55:16.028Z,21.42
2019-03-18T15:57:45.549Z,21.38
2019-03-18T16:00:16.879Z,21.31
2019-03-18T16:02:48.217Z,21.23
2019-03-18T16:05:17.722Z,21.18
2019-03-18T16:07:47.265Z,21.11
2019-03-18T16:10:16.858Z,21.06
2019-03-18T16:12:46.402Z,20.96
2019-03-18T16:15:16.056Z,20.88
2019-03-18T16:17:45.560Z,20.75
2019-03-18T16:20:15.305Z,20.67
2019-03-18T16:22:44.816Z,20.59
2019-03-18T16:25:14.320Z,20.54
2019-03-18T16:27:44.309Z,20.51
2019-03-18T16:30:15.029Z,20.42
2019-03-18T16:32:44.551Z,20.32
2019-03-18T16:35:16.007Z,20.31
2019-03-18T16:37:45.646Z,20.20
2019-03-18T16:40:15.290Z,20.08
2019-03-18T16:42:44.827Z,20.01
2019-03-18T16:45:14.747Z,19.89
2019-03-18T16:47:44.245Z,19.75
2019-03-18T16:50:15.018Z,19.71
2019-03-18T16:52:44.534Z,19.63
2019-03-18T16:55:14.180Z,19.54
2019-03-18T16:57:43.685Z,19.43
2019-03-18T17:00:15.616Z,19.42
2019-03-18T17:02:45.920Z,19.34
2019-03-18T17:05:15.641Z,19.25
2019-03-18T17:07:45.248Z,19.14
2019-03-18T17:10:14.813Z,19.06
2019-03-18T17:12:44.337Z,19.08
2019-03-18T17:15:13.966Z,19.09
2019-03-18T17:17:43.510Z,19.07
2019-03-18T17:20:13.272Z,19.04
2019-03-18T17:22:49.222Z,18.98
2019-03-18T17:25:15.957Z,18.94
2019-03-18T17:27:45.515Z,18.91
2019-03-18T17:30:16.716Z,18.89
2019-03-18T17:32:46.407Z,18.94
2019-03-18T17:35:16.031Z,18.87
2019-03-18T17:37:45.593Z,18.86
2019-03-18T17:40:15.254Z,18.89
2019-03-18T17:42:44.753Z,18.91
2019-03-18T17:45:14.468Z,18.89
2019-03-18T17:47:44.129Z,18.80
2019-03-18T17:50:16.072Z,18.69
2019-03-18T17:52:45.611Z,18.62
2019-03-18T17:55:18.183Z,18.57
2019-03-18T17:57:47.745Z,18.50
2019-03-18T18:00:21.814Z,18.44
2019-03-18T18:02:52.758Z,18.37
2019-03-18T18:05:22.583Z,18.23
2019-03-18T18:07:54.846Z,18.22
2019-03-18T18:10:24.361Z,18.24
2019-03-18T18:12:54.066Z,18.26
2019-03-18T18:15:23.610Z,18.22
2019-03-18T18:17:53.250Z,18.14
2019-03-18T18:20:22.770Z,18.02
2019-03-18T18:22:52.556Z,17.96
2019-03-18T18:25:22.182Z,17.87
2019-03-18T18:27:52.034Z,17.75
2019-03-18T18:30:21.565Z,18.01
2019-03-18T18:32:51.111Z,18.35
2019-03-18T18:35:20.595Z,18.32
2019-03-18T18:37:50.088Z,18.31
2019-03-18T18:40:19.917Z,18.11
2019-03-18T18:42:49.446Z,18.03
2019-03-18T18:45:21.154Z,17.93
2019-03-18T18:47:50.605Z,17.88
2019-03-18T18:50:20.130Z,17.77
2019-03-18T18:52:49.626Z,17.69
2019-03-18T18:55:19.131Z,17.63
2019-03-18T18:57:48.690Z,17.59
2019-03-18T19:00:18.454Z,17.52
2019-03-18T19:02:50.608Z,17.51
2019-03-18T19:05:20.193Z,17.37
2019-03-18T19:07:49.704Z,17.31
2019-03-18T19:10:19.202Z,17.34
2019-03-18T19:12:48.797Z,17.31
2019-03-18T19:15:19.845Z,17.29
2019-03-18T19:17:49.507Z,17.21
2019-03-18T19:20:19.205Z,17.19
2019-03-18T19:22:48.768Z,17.12
2019-03-18T19:25:18.259Z,17.02
2019-03-18T19:27:48.851Z,16.98
2019-03-18T19:30:19.121Z,16.93
2019-03-18T19:32:48.625Z,16.85
2019-03-18T19:35:18.304Z,16.74
2019-03-18T19:37:47.830Z,16.61
2019-03-18T19:40:17.386Z,16.57
2019-03-18T19:42:46.891Z,16.54
2019-03-18T19:45:17.042Z,16.49
2019-03-18T19:47:46.554Z,16.46
2019-03-18T19:50:17.322Z,16.38
2019-03-18T19:52:46.959Z,16.36
2019-03-18T19:55:16.485Z,16.34
2019-03-18T19:57:46.027Z,16.34
2019-03-18T20:00:17.499Z,16.35
2019-03-18T20:02:47.014Z,16.35
2019-03-18T20:05:18.917Z,16.33
2019-03-18T20:07:48.141Z,16.29
2019-03-18T20:10:17.604Z,16.26
2019-03-18T20:12:47.142Z,16.24
2019-03-18T20:15:16.854Z,16.24
2019-03-18T20:17:46.522Z,16.19
2019-03-18T20:20:16.095Z,16.15
2019-03-18T20:22:45.604Z,16.11
2019-03-18T20:25:15.497Z,16.03
2019-03-18T20:27:45.021Z,15.79
2019-03-18T20:30:15.609Z,15.76
2019-03-18T20:32:45.098Z,15.74
2019-03-18T20:35:14.864Z,15.67
2019-03-18T20:37:44.337Z,15.61
2019-03-18T20:40:14.385Z,15.56
2019-03-18T20:42:44.161Z,15.53
2019-03-18T20:45:14.886Z,15.50
2019-03-18T20:47:44.436Z,15.48
2019-03-18T20:50:15.486Z,15.48
2019-03-18T20:52:45.068Z,15.42
2019-03-18T20:55:14.960Z,15.39
2019-03-18T20:57:44.517Z,15.36
2019-03-18T21:00:15.565Z,15.28
2019-03-18T21:02:45.246Z,15.24
2019-03-18T21:05:14.770Z,15.22
2019-03-18T21:07:44.351Z,15.15
2019-03-18T21:10:13.872Z,15.12
2019-03-18T21:12:43.400Z,15.13
2019-03-18T21:15:13.389Z,15.05
2019-03-18T21:17:42.903Z,14.97
2019-03-18T21:20:14.071Z,14.78
2019-03-18T21:22:43.593Z,14.70
2019-03-18T21:25:13.391Z,14.70
2019-03-18T21:27:42.927Z,14.63
2019-03-18T21:30:12.827Z,14.63
2019-03-18T21:32:42.554Z,14.62
2019-03-18T21:35:12.182Z,14.65
2019-03-18T21:37:41.887Z,14.67
2019-03-18T21:40:12.602Z,14.61
2019-03-18T21:42:42.166Z,14.60
2019-03-18T21:45:14.229Z,14.52
2019-03-18T21:47:43.799Z,14.50
2019-03-18T21:50:14.186Z,14.51
2019-03-18T21:52:43.833Z,14.55
2019-03-18T21:55:13.833Z,14.58
2019-03-18T21:57:43.726Z,14.59
2019-03-18T22:00:15.073Z,14.48
2019-03-18T22:02:44.666Z,14.51
2019-03-18T22:05:14.271Z,14.56
2019-03-18T22:07:43.789Z,14.51
2019-03-18T22:10:13.726Z,14.55
2019-03-18T22:12:43.243Z,14.52
2019-03-18T22:15:12.874Z,14.49
2019-03-18T22:17:42.408Z,14.49
2019-03-18T22:20:13.518Z,14.44
2019-03-18T22:22:42.988Z,14.24
2019-03-18T22:25:12.481Z,14.28
2019-03-18T22:27:42.004Z,14.45
2019-03-18T22:30:11.788Z,14.67
2019-03-18T22:32:41.304Z,14.51
2019-03-18T22:35:11.051Z,14.43
2019-03-18T22:37:40.553Z,14.42
2019-03-18T22:40:10.344Z,14.58
2019-03-18T22:42:39.858Z,14.80
2019-03-18T22:45:09.958Z,14.62
2019-03-18T22:47:39.489Z,14.46
2019-03-18T22:50:09.831Z,14.38
2019-03-18T22:52:39.361Z,14.40
2019-03-18T22:55:09.517Z,14.47
2019-03-18T22:57:40.249Z,14.53
2019-03-18T23:00:42.992Z,14.53
2019-03-18T23:03:12.490Z,14.56
2019-03-18T23:05:42.008Z,14.44
2019-03-18T23:08:11.510Z,14.41
2019-03-18T23:10:41.007Z,14.59
2019-03-18T23:13:10.486Z,14.72
2019-03-18T23:15:39.979Z,14.77
2019-03-18T23:18:09.479Z,14.79
2019-03-18T23:20:38.952Z,14.83
2019-03-18T23:23:08.443Z,14.80
2019-03-18T23:25:37.920Z,14.75
2019-03-18T23:28:07.459Z,14.75
2019-03-18T23:30:36.957Z,14.71
2019-03-18T23:33:06.442Z,14.66
2019-03-18T23:35:35.962Z,14.60
2019-03-18T23:38:05.576Z,14.56
2019-03-18T23:40:35.119Z,14.51
2019-03-18T23:43:04.670Z,14.41
2019-03-18T23:45:34.175Z,14.35
2019-03-18T23:48:03.765Z,14.33
2019-03-18T23:50:33.245Z,14.31
2019-03-18T23:53:02.746Z,14.24
2019-03-18T23:55:32.233Z,14.21
2019-03-18T23:58:03.483Z,14.18
